createdAt,value
2018-05-15T00:00:32.766Z,29.07
2018-05-15T00:03:00.312Z,30.50
2018-05-15T00:05:27.840Z,29.17
2018-05-15T00:07:55.303Z,28.57
2018-05-15T00:10:23.935Z,29.20
2018-05-15T00:12:52.227Z,31.90
2018-05-15T00:15:20.475Z,29.37
2018-05-15T00:17:47.998Z,30.80
2018-05-15T00:20:16.637Z,28.80
2018-05-15T00:22:44.972Z,28.37
2018-05-15T00:25:12.478Z,27.80
2018-05-15T00:27:41.115Z,29.30
2018-05-15T00:30:08.645Z,27.47
2018-05-15T00:32:36.181Z,28.57
2018-05-15T00:35:04.473Z,28.60
2018-05-15T00:37:31.996Z,28.20
2018-05-15T00:40:00.255Z,29.23
2018-05-15T00:42:27.729Z,29.70
2018-05-15T00:44:55.197Z,30.60
2018-05-15T00:47:23.475Z,28.67
2018-05-15T00:49:51.362Z,30.30
2018-05-15T00:52:18.896Z,30.43
2018-05-15T00:54:46.841Z,29.67
2018-05-15T00:57:14.408Z,30.67
2018-05-15T00:59:41.895Z,29.63
2018-05-15T01:02:10.145Z,28.60
2018-05-15T01:04:37.793Z,30.17
2018-05-15T01:07:05.332Z,28.90
2018-05-15T01:09:32.865Z,29.53
2018-05-15T01:12:00.391Z,29.20
2018-05-15T01:14:28.686Z,28.60
2018-05-15T01:16:56.251Z,29.00
2018-05-15T01:19:25.232Z,28.70
2018-05-15T01:21:52.766Z,26.90
2018-05-15T01:24:20.643Z,27.10
2018-05-15T01:26:48.960Z,27.27
2018-05-15T01:29:17.227Z,28.20
2018-05-15T01:31:45.820Z,25.83
2018-05-15T01:34:13.348Z,26.20
2018-05-15T01:36:41.604Z,26.80
2018-05-15T01:39:10.032Z,27.17
2018-05-15T01:41:37.530Z,26.43
2018-05-15T01:44:05.382Z,27.27
2018-05-15T01:46:32.914Z,27.80
2018-05-15T01:49:00.417Z,28.10
2018-05-15T01:51:28.291Z,27.93
2018-05-15T01:53:55.776Z,28.30
2018-05-15T01:56:23.260Z,26.07
2018-05-15T01:58:50.789Z,26.87
2018-05-15T02:01:18.312Z,26.87
2018-05-15T02:03:46.611Z,27.37
2018-05-15T02:06:14.900Z,27.30
2018-05-15T02:08:42.439Z,28.53
2018-05-15T02:11:10.733Z,26.00
2018-05-15T02:13:38.272Z,25.77
2018-05-15T02:16:06.563Z,24.73
2018-05-15T02:18:34.112Z,24.73
2018-05-15T02:21:02.800Z,24.10
2018-05-15T02:23:31.095Z,23.63
2018-05-15T02:25:58.615Z,25.57
2018-05-15T02:28:26.915Z,23.23
2018-05-15T02:30:54.848Z,23.17
2018-05-15T02:33:22.394Z,23.63
2018-05-15T02:35:49.914Z,23.10
2018-05-15T02:38:17.457Z,24.17
2018-05-15T02:40:45.739Z,23.87
2018-05-15T02:43:13.271Z,23.00
2018-05-15T02:45:41.574Z,23.80
2018-05-15T02:48:09.119Z,22.87
2018-05-15T02:50:37.034Z,23.30
2018-05-15T02:53:04.555Z,25.03
2018-05-15T02:55:32.094Z,24.60
2018-05-15T02:58:00.388Z,24.33
2018-05-15T03:00:28.314Z,25.40
2018-05-15T03:02:55.843Z,26.67
2018-05-15T03:05:23.323Z,26.10
2018-05-15T03:07:50.850Z,26.37
2018-05-15T03:10:18.373Z,24.17
2018-05-15T03:12:45.910Z,26.20
2018-05-15T03:15:13.455Z,25.20
2018-05-15T03:17:40.999Z,26.80
2018-05-15T03:20:08.521Z,26.53
2018-05-15T03:22:36.044Z,26.50
2018-05-15T03:25:03.567Z,26.53
2018-05-15T03:27:31.070Z,25.30
2018-05-15T03:29:59.383Z,27.53
2018-05-15T03:32:26.919Z,26.27
2018-05-15T03:34:55.205Z,27.30
2018-05-15T03:37:23.143Z,27.73
2018-05-15T03:39:51.462Z,26.87
2018-05-15T03:42:18.984Z,27.73
2018-05-15T03:44:46.503Z,27.70
2018-05-15T03:47:14.035Z,27.10
2018-05-15T03:49:41.964Z,27.60
2018-05-15T03:52:09.917Z,28.60
2018-05-15T03:54:38.240Z,27.67
2018-05-15T03:57:05.794Z,27.83
2018-05-15T03:59:33.328Z,26.73
2018-05-15T04:02:12.656Z,27.10
2018-05-15T04:04:51.962Z,28.10
2018-05-15T04:10:22.695Z,29.90
2018-05-15T04:12:50.349Z,27.57
2018-05-15T04:15:17.782Z,30.17
2018-05-15T04:17:45.218Z,29.67
2018-05-15T04:20:13.642Z,27.37
2018-05-15T04:22:41.205Z,28.53
2018-05-15T04:25:08.663Z,28.23
2018-05-15T04:27:36.930Z,29.30
2018-05-15T04:30:04.441Z,27.37
2018-05-15T04:32:31.910Z,29.27
2018-05-15T04:34:59.535Z,27.57
2018-05-15T04:37:27.708Z,27.40
2018-05-15T04:39:55.247Z,28.27
2018-05-15T04:42:22.793Z,28.70
2018-05-15T04:44:50.353Z,27.17
2018-05-15T04:47:17.821Z,26.17
2018-05-15T04:49:45.530Z,27.23
2018-05-15T04:52:13.674Z,26.50
2018-05-15T04:54:41.547Z,27.63
2018-05-15T04:57:09.035Z,27.30
2018-05-15T04:59:36.496Z,28.30
2018-05-15T05:02:04.895Z,25.93
2018-05-15T05:04:32.289Z,28.43
2018-05-15T05:06:59.768Z,27.50
2018-05-15T05:09:27.273Z,27.70
2018-05-15T05:11:54.767Z,28.53
2018-05-15T05:14:22.243Z,28.13
2018-05-15T05:16:49.727Z,27.17
2018-05-15T05:19:17.199Z,26.57
2018-05-15T05:21:44.692Z,29.80
2018-05-15T05:24:12.248Z,26.93
2018-05-15T05:26:40.143Z,26.90
2018-05-15T05:29:08.036Z,28.47
2018-05-15T05:31:35.522Z,27.63
2018-05-15T05:34:03.401Z,26.83
2018-05-15T05:36:36.839Z,27.40
2018-05-15T05:39:06.075Z,26.00
2018-05-15T05:41:33.615Z,25.40
2018-05-15T05:44:01.157Z,25.40
2018-05-15T05:46:28.763Z,25.23
2018-05-15T05:48:56.187Z,24.10
2018-05-15T05:51:23.683Z,25.67
2018-05-15T05:53:51.163Z,26.10
2018-05-15T05:56:18.688Z,22.33
2018-05-15T05:58:46.157Z,24.17
2018-05-15T06:01:13.650Z,23.80
2018-05-15T06:03:41.885Z,25.60
2018-05-15T06:06:09.355Z,25.47
2018-05-15T06:08:36.816Z,26.20
2018-05-15T06:11:04.288Z,28.30
2018-05-15T06:13:32.110Z,26.53
2018-05-15T06:15:59.562Z,25.93
2018-05-15T06:18:27.343Z,25.10
2018-05-15T06:20:54.817Z,26.53
2018-05-15T06:23:22.231Z,26.53
2018-05-15T06:25:49.742Z,26.07
2018-05-15T06:31:17.211Z,25.20
2018-05-15T06:33:44.652Z,24.43
2018-05-15T06:36:12.107Z,24.37
2018-05-15T06:38:39.566Z,25.70
2018-05-15T06:41:07.020Z,22.93
2018-05-15T06:43:34.462Z,25.43
2018-05-15T06:46:01.907Z,23.90
2018-05-15T06:48:29.358Z,25.17
2018-05-15T06:50:56.824Z,21.43
2018-05-15T06:53:24.664Z,21.33
2018-05-15T06:55:52.116Z,22.13
2018-05-15T06:58:19.562Z,17.40
2018-05-15T07:00:48.107Z,18.63
2018-05-15T07:03:15.552Z,20.47
2018-05-15T07:05:43.003Z,19.80
2018-05-15T07:08:10.875Z,22.17
2018-05-15T07:10:38.717Z,29.00
2018-05-15T07:13:06.225Z,27.20
2018-05-15T07:15:33.683Z,14.10
2018-05-15T07:18:01.184Z,17.33
2018-05-15T07:20:29.413Z,15.27
2018-05-15T07:22:56.935Z,13.07
2018-05-15T07:25:24.423Z,11.87
2018-05-15T07:27:51.890Z,14.27
2018-05-15T07:30:19.340Z,12.53
2018-05-15T07:32:46.821Z,13.20
2018-05-15T07:35:15.043Z,10.10
2018-05-15T07:37:42.568Z,11.87
2018-05-15T07:40:10.163Z,13.10
2018-05-15T07:42:37.562Z,12.50
2018-05-15T07:45:06.172Z,11.80
2018-05-15T07:47:33.647Z,11.60
2018-05-15T07:50:01.090Z,11.50
2018-05-15T07:52:28.543Z,11.40
2018-05-15T07:54:55.974Z,10.80
2018-05-15T07:57:24.177Z,11.00
2018-05-15T07:59:51.620Z,10.67
2018-05-15T08:02:19.071Z,10.70
2018-05-15T08:04:46.898Z,10.00
2018-05-15T08:07:14.339Z,10.17
2018-05-15T08:09:41.794Z,10.47
2018-05-15T08:12:09.242Z,10.40
2018-05-15T08:14:36.685Z,10.13
2018-05-15T08:17:04.520Z,10.57
2018-05-15T08:19:31.967Z,9.60
2018-05-15T08:22:00.183Z,10.43
2018-05-15T08:24:27.631Z,10.33
2018-05-15T08:26:55.088Z,11.70
2018-05-15T08:29:22.888Z,10.57
2018-05-15T08:31:50.326Z,10.00
2018-05-15T08:34:17.775Z,10.33
2018-05-15T08:36:45.986Z,9.97
2018-05-15T08:39:13.431Z,10.00
2018-05-15T08:41:40.891Z,11.83
2018-05-15T08:44:08.720Z,9.97
2018-05-15T08:46:36.170Z,10.77
2018-05-15T08:49:03.610Z,11.03
2018-05-15T08:51:31.109Z,10.10
2018-05-15T08:53:59.284Z,10.40
2018-05-15T08:56:26.735Z,9.60
2018-05-15T08:58:54.959Z,10.30
2018-05-15T09:01:23.171Z,10.33
2018-05-15T09:03:51.007Z,10.63
2018-05-15T09:06:18.446Z,9.90
2018-05-15T09:08:46.314Z,11.53
2018-05-15T09:11:14.524Z,12.20
2018-05-15T09:13:43.122Z,10.67
2018-05-15T09:16:10.575Z,10.40
2018-05-15T09:18:38.030Z,11.30
2018-05-15T09:21:06.241Z,12.00
2018-05-15T09:23:34.088Z,11.77
2018-05-15T09:26:01.540Z,11.47
2018-05-15T09:28:28.983Z,9.73
2018-05-15T09:30:56.428Z,9.90
2018-05-15T09:33:23.888Z,9.70
2018-05-15T09:35:51.332Z,10.53
2018-05-15T09:38:18.767Z,10.00
2018-05-15T09:40:46.601Z,10.43
2018-05-15T09:43:26.423Z,10.50
2018-05-15T09:45:53.882Z,9.40
2018-05-15T09:48:21.711Z,10.07
2018-05-15T09:50:49.148Z,10.10
2018-05-15T09:53:16.987Z,10.53
2018-05-15T09:55:44.427Z,10.17
2018-05-15T09:58:12.641Z,10.50
2018-05-15T10:00:40.462Z,9.40
2018-05-15T10:03:07.911Z,9.13
2018-05-15T10:05:35.353Z,9.43
2018-05-15T10:08:02.900Z,10.17
2018-05-15T10:10:30.227Z,10.73
2018-05-15T10:12:58.445Z,11.10
2018-05-15T10:15:25.880Z,10.53
2018-05-15T10:17:53.727Z,10.33
2018-05-15T10:20:21.935Z,9.70
2018-05-15T10:22:49.374Z,10.90
2018-05-15T10:25:16.816Z,10.57
2018-05-15T10:27:45.034Z,9.40
2018-05-15T10:30:13.233Z,9.50
2018-05-15T10:32:40.663Z,9.03
2018-05-15T10:35:08.099Z,9.43
2018-05-15T10:37:35.931Z,8.77
2018-05-15T10:40:03.370Z,9.40
2018-05-15T10:42:30.811Z,10.17
2018-05-15T10:44:58.268Z,10.90
2018-05-15T10:47:25.703Z,9.60
2018-05-15T10:49:53.150Z,9.90
2018-05-15T10:52:20.579Z,12.07
2018-05-15T10:54:48.410Z,9.60
2018-05-15T10:57:15.841Z,11.80
2018-05-15T10:59:43.292Z,11.00
2018-05-15T11:02:10.727Z,11.40
2018-05-15T11:04:38.162Z,10.87
2018-05-15T11:07:06.368Z,11.17
2018-05-15T11:09:34.202Z,11.33
2018-05-15T11:12:02.413Z,10.63
2018-05-15T11:14:29.851Z,9.60
2018-05-15T11:16:57.689Z,9.60
2018-05-15T11:19:36.821Z,9.10
2018-05-15T11:25:07.196Z,10.23
2018-05-15T11:27:35.010Z,9.00
2018-05-15T11:30:02.450Z,9.70
2018-05-15T11:32:30.280Z,9.70
2018-05-15T11:34:57.723Z,8.90
2018-05-15T11:37:25.932Z,9.13
2018-05-15T11:39:53.383Z,9.10
2018-05-15T11:42:21.617Z,7.33
2018-05-15T11:44:49.020Z,9.20
2018-05-15T11:47:16.529Z,8.97
2018-05-15T11:49:44.621Z,9.93
2018-05-15T11:52:12.545Z,9.57
2018-05-15T11:54:39.178Z,9.60
2018-05-15T11:57:07.018Z,8.57
2018-05-15T11:59:34.458Z,7.90
2018-05-15T12:02:02.285Z,7.50
2018-05-15T12:04:29.714Z,8.57
2018-05-15T12:06:57.142Z,8.77
2018-05-15T12:09:25.346Z,7.37
2018-05-15T12:11:52.791Z,7.10
2018-05-15T12:14:20.239Z,7.10
2018-05-15T12:16:47.683Z,7.73
2018-05-15T12:19:15.115Z,7.40
2018-05-15T12:21:42.551Z,7.07
2018-05-15T12:24:10.379Z,6.70
2018-05-15T12:26:37.830Z,7.13
2018-05-15T12:29:05.663Z,6.27
2018-05-15T12:31:33.862Z,6.83
2018-05-15T12:34:02.068Z,7.83
2018-05-15T12:36:29.519Z,7.03
2018-05-15T12:38:56.951Z,7.10
2018-05-15T12:41:25.237Z,7.00
2018-05-15T12:43:52.586Z,7.50
2018-05-15T12:46:20.067Z,6.63
2018-05-15T12:48:49.328Z,6.73
2018-05-15T12:51:16.739Z,6.20
2018-05-15T12:53:44.942Z,6.40
2018-05-15T12:56:12.382Z,6.20
2018-05-15T12:58:40.210Z,6.33
2018-05-15T13:01:07.650Z,6.33
2018-05-15T13:03:35.087Z,5.97
2018-05-15T13:06:02.542Z,6.10
2018-05-15T13:08:30.141Z,6.83
2018-05-15T13:10:57.568Z,5.40
2018-05-15T13:13:25.003Z,5.80
2018-05-15T13:15:52.438Z,4.93
2018-05-15T13:18:20.758Z,6.20
2018-05-15T13:20:48.087Z,5.37
2018-05-15T13:23:15.511Z,5.67
2018-05-15T13:25:43.718Z,5.10
2018-05-15T13:28:11.159Z,5.07
2018-05-15T13:30:39.371Z,5.60
2018-05-15T13:33:06.809Z,6.00
2018-05-15T13:35:34.642Z,5.80
2018-05-15T13:38:02.884Z,5.67
2018-05-15T13:40:30.322Z,5.07
2018-05-15T13:42:58.155Z,5.40
2018-05-15T13:45:25.984Z,5.27
2018-05-15T13:47:53.415Z,5.70
2018-05-15T13:50:20.853Z,4.67
2018-05-15T13:52:48.679Z,5.00
2018-05-15T13:55:16.107Z,3.97
2018-05-15T13:57:43.946Z,4.60
2018-05-15T14:00:11.771Z,5.83
2018-05-15T14:02:39.603Z,5.00
2018-05-15T14:05:07.037Z,4.80
2018-05-15T14:07:34.468Z,4.70
2018-05-15T14:10:01.898Z,4.83
2018-05-15T14:12:29.768Z,4.23
2018-05-15T14:14:57.166Z,5.10
2018-05-15T14:17:24.607Z,4.70
2018-05-15T14:19:52.027Z,4.20
2018-05-15T14:22:19.460Z,4.80
2018-05-15T14:24:46.988Z,5.03
2018-05-15T14:27:14.731Z,5.10
2018-05-15T14:29:42.162Z,4.30
2018-05-15T14:32:10.371Z,5.53
2018-05-15T14:34:37.791Z,4.80
2018-05-15T14:37:05.999Z,5.60
2018-05-15T14:39:33.418Z,5.10
2018-05-15T14:42:13.467Z,5.87
2018-05-15T14:44:40.899Z,5.40
2018-05-15T14:47:08.342Z,4.80
2018-05-15T14:49:35.766Z,4.73
2018-05-15T14:52:03.207Z,5.60
2018-05-15T14:54:32.142Z,4.90
2018-05-15T14:56:59.993Z,4.70
2018-05-15T14:59:27.427Z,4.90
2018-05-15T15:01:54.863Z,5.00
2018-05-15T15:04:23.159Z,6.63
2018-05-15T15:06:50.587Z,4.73
2018-05-15T15:09:18.024Z,5.27
2018-05-15T15:11:46.225Z,5.30
2018-05-15T15:14:14.443Z,6.00
2018-05-15T15:16:41.916Z,6.20
2018-05-15T15:19:09.330Z,5.33
2018-05-15T15:21:36.767Z,4.80
2018-05-15T15:24:04.194Z,5.30
2018-05-15T15:26:31.638Z,5.97
2018-05-15T15:28:59.484Z,5.30
2018-05-15T15:31:26.920Z,5.53
2018-05-15T15:33:54.355Z,5.20
2018-05-15T15:36:22.538Z,5.07
2018-05-15T15:38:50.743Z,5.40
2018-05-15T15:41:18.947Z,4.80
2018-05-15T15:43:46.435Z,5.10
2018-05-15T15:46:13.816Z,5.60
2018-05-15T15:48:41.255Z,5.10
2018-05-15T15:51:09.466Z,6.10
2018-05-15T15:53:37.297Z,5.30
2018-05-15T15:56:04.726Z,5.90
2018-05-15T15:58:32.159Z,6.10
2018-05-15T16:00:59.588Z,6.13
2018-05-15T16:03:27.413Z,6.20
2018-05-15T16:05:54.838Z,5.73
2018-05-15T16:08:22.286Z,5.70
2018-05-15T16:10:50.475Z,5.67
2018-05-15T16:13:21.522Z,7.10
2018-05-15T16:15:49.095Z,6.47
2018-05-15T16:18:16.530Z,7.23
2018-05-15T16:20:43.953Z,6.60
2018-05-15T16:23:11.427Z,7.30
2018-05-15T16:25:38.863Z,7.00
2018-05-15T16:28:07.074Z,6.87
2018-05-15T16:30:34.542Z,6.33
2018-05-15T16:33:02.378Z,6.00
2018-05-15T16:35:30.605Z,5.47
2018-05-15T16:37:58.141Z,6.67
2018-05-15T16:40:25.602Z,6.27
2018-05-15T16:42:56.458Z,5.57
2018-05-15T16:45:24.007Z,7.10
2018-05-15T16:47:52.218Z,6.40
2018-05-15T16:50:20.095Z,6.83
2018-05-15T16:52:47.563Z,6.80
2018-05-15T16:55:15.012Z,6.90
2018-05-15T16:57:42.453Z,7.07
2018-05-15T17:00:09.913Z,7.10
2018-05-15T17:02:37.351Z,7.50
2018-05-15T17:05:05.559Z,7.97
2018-05-15T17:07:33.007Z,8.60
2018-05-15T17:10:01.222Z,8.50
2018-05-15T17:12:29.049Z,8.27
2018-05-15T17:14:56.485Z,8.17
2018-05-15T17:17:24.712Z,8.43
2018-05-15T17:19:52.153Z,9.17
2018-05-15T17:22:19.590Z,9.10
2018-05-15T17:24:47.044Z,8.63
2018-05-15T17:27:14.489Z,9.60
2018-05-15T17:29:42.343Z,7.13
2018-05-15T17:32:09.789Z,6.13
2018-05-15T17:34:37.679Z,5.10
2018-05-15T17:37:05.114Z,4.73
2018-05-15T17:39:32.949Z,4.73
2018-05-15T17:42:00.405Z,4.87
2018-05-15T17:44:27.851Z,4.77
2018-05-15T17:46:55.287Z,4.40
2018-05-15T17:49:22.731Z,5.40
2018-05-15T17:51:50.179Z,4.43
2018-05-15T17:54:17.615Z,5.13
2018-05-15T17:56:45.451Z,5.77
2018-05-15T17:59:13.291Z,6.20
2018-05-15T18:01:40.723Z,5.53
2018-05-15T18:04:08.186Z,5.80
2018-05-15T18:06:36.027Z,6.10
2018-05-15T18:09:03.467Z,6.27
2018-05-15T18:11:30.906Z,5.40
2018-05-15T18:13:58.340Z,6.50
2018-05-15T18:16:25.792Z,6.50
2018-05-15T18:18:53.231Z,7.20
2018-05-15T18:21:20.760Z,6.73
2018-05-15T18:23:48.110Z,5.30
2018-05-15T18:26:16.324Z,6.30
2018-05-15T18:28:43.768Z,6.47
2018-05-15T18:31:11.215Z,6.77
2018-05-15T18:33:38.652Z,7.23
2018-05-15T18:36:06.879Z,6.60
2018-05-15T18:38:34.711Z,6.20
2018-05-15T18:41:02.921Z,7.70
2018-05-15T18:43:30.355Z,7.73
2018-05-15T18:45:57.809Z,6.97
2018-05-15T18:48:25.253Z,6.67
2018-05-15T18:50:52.709Z,7.00
2018-05-15T18:53:20.145Z,7.93
2018-05-15T18:55:47.578Z,7.60
2018-05-15T18:58:15.019Z,7.17
2018-05-15T19:00:43.024Z,7.37
2018-05-15T19:03:10.457Z,7.13
2018-05-15T19:05:37.942Z,7.10
2018-05-15T19:08:06.153Z,7.73
2018-05-15T19:10:33.608Z,7.20
2018-05-15T19:13:01.039Z,6.53
2018-05-15T19:15:28.483Z,7.23
2018-05-15T19:17:55.919Z,6.90
2018-05-15T19:20:24.139Z,6.67
2018-05-15T19:22:51.594Z,7.70
2018-05-15T19:25:19.438Z,7.73
2018-05-15T19:27:46.883Z,7.57
2018-05-15T19:30:14.339Z,7.63
2018-05-15T19:32:42.543Z,7.70
2018-05-15T19:35:09.998Z,7.83
2018-05-15T19:37:37.418Z,8.10
2018-05-15T19:40:11.395Z,7.67
2018-05-15T19:42:38.839Z,7.67
2018-05-15T19:45:06.735Z,7.70
2018-05-15T19:47:34.525Z,7.57
2018-05-15T19:50:02.729Z,8.30
2018-05-15T19:52:30.172Z,8.03
2018-05-15T19:54:57.611Z,9.57
2018-05-15T19:57:25.919Z,10.00
2018-05-15T19:59:53.746Z,9.47
2018-05-15T20:02:21.186Z,9.23
2018-05-15T20:04:48.704Z,8.63
2018-05-15T20:07:16.067Z,8.10
2018-05-15T20:09:43.491Z,7.57
2018-05-15T20:12:10.929Z,7.40
2018-05-15T20:14:39.153Z,8.77
2018-05-15T20:17:06.608Z,9.33
2018-05-15T20:19:34.050Z,8.70
2018-05-15T20:22:01.490Z,8.83
2018-05-15T20:24:28.939Z,9.17
2018-05-15T20:26:56.392Z,9.33
2018-05-15T20:29:24.608Z,10.03
2018-05-15T20:31:52.056Z,10.13
2018-05-15T20:34:19.502Z,8.27
2018-05-15T20:36:46.927Z,9.40
2018-05-15T20:39:15.138Z,8.60
2018-05-15T20:41:42.588Z,8.50
2018-05-15T20:44:10.029Z,7.50
2018-05-15T20:46:37.470Z,8.73
2018-05-15T20:49:05.749Z,7.53
2018-05-15T20:51:33.176Z,7.63
2018-05-15T20:54:00.603Z,7.97
2018-05-15T20:56:28.048Z,8.60
2018-05-15T20:58:55.482Z,7.37
2018-05-15T21:01:22.928Z,7.97
2018-05-15T21:03:50.755Z,7.30
2018-05-15T21:06:18.231Z,7.63
2018-05-15T21:08:45.662Z,7.87
2018-05-15T21:11:13.104Z,7.73
2018-05-15T21:13:41.894Z,7.27
2018-05-15T21:16:10.471Z,7.23
2018-05-15T21:18:39.429Z,7.50
2018-05-15T21:21:06.891Z,7.43
2018-05-15T21:23:34.385Z,7.13
2018-05-15T21:26:02.986Z,7.80
2018-05-15T21:28:30.483Z,7.33
2018-05-15T21:30:58.379Z,6.97
2018-05-15T21:33:26.235Z,6.83
2018-05-15T21:35:53.697Z,6.60
2018-05-15T21:38:21.281Z,6.97
2018-05-15T21:40:48.771Z,7.47
2018-05-15T21:43:16.982Z,8.10
2018-05-15T21:45:44.451Z,7.63
2018-05-15T21:48:11.943Z,8.10
2018-05-15T21:50:39.432Z,7.83
2018-05-15T21:53:07.258Z,7.90
2018-05-15T21:55:34.682Z,7.40
2018-05-15T21:58:02.128Z,7.20
2018-05-15T22:00:29.957Z,7.47
2018-05-15T22:02:58.169Z,7.07
2018-05-15T22:05:26.374Z,6.60
2018-05-15T22:07:54.215Z,6.70
2018-05-15T22:10:21.663Z,7.10
2018-05-15T22:13:00.859Z,7.07
2018-05-15T22:15:40.929Z,7.17
2018-05-15T22:18:20.241Z,6.63
2018-05-15T22:21:00.284Z,6.77
2018-05-15T22:23:27.226Z,7.07
2018-05-15T22:25:54.670Z,7.57
2018-05-15T22:28:22.120Z,6.80
2018-05-15T22:30:49.562Z,6.57
2018-05-15T22:33:17.004Z,7.43
2018-05-15T22:35:44.451Z,7.57
2018-05-15T22:38:12.666Z,6.80
2018-05-15T22:40:40.093Z,8.00
2018-05-15T22:43:07.542Z,7.63
2018-05-15T22:45:34.975Z,7.30
2018-05-15T22:48:03.519Z,7.53
2018-05-15T22:50:31.738Z,7.53
2018-05-15T22:52:59.167Z,7.60
2018-05-15T22:55:27.371Z,7.57
2018-05-15T22:57:54.798Z,8.00
2018-05-15T23:00:23.015Z,7.20
2018-05-15T23:02:50.446Z,7.83
2018-05-15T23:05:18.282Z,7.50
2018-05-15T23:07:45.718Z,8.47
2018-05-15T23:10:13.155Z,8.20
2018-05-15T23:12:40.591Z,8.10
2018-05-15T23:15:08.031Z,8.40
2018-05-15T23:17:36.217Z,8.90
2018-05-15T23:20:03.658Z,9.27
2018-05-15T23:22:41.807Z,9.70
2018-05-15T23:25:09.658Z,9.90
2018-05-15T23:27:37.096Z,10.50
2018-05-15T23:30:04.546Z,10.87
2018-05-15T23:32:32.747Z,11.23
2018-05-15T23:35:00.966Z,11.30
2018-05-15T23:37:28.414Z,11.30
2018-05-15T23:39:55.853Z,12.03
2018-05-15T23:42:23.290Z,12.70
2018-05-15T23:44:50.743Z,12.93
2018-05-15T23:47:18.185Z,12.87
2018-05-15T23:49:46.022Z,14.27
2018-05-15T23:52:13.463Z,14.13
2018-05-15T23:54:40.907Z,14.03
2018-05-15T23:57:08.353Z,12.70
2018-05-15T23:59:36.567Z,13.50
